sensor_id;sensor_type;location;lat;lon;timestamp;pressure;altitude;pressure_sealevel;temperature;humidity
42411;BME280;28056;51.112;0.984;2023-09-19T00:01:05;99992.47;;;13.87;69.07
42411;BME280;28056;51.112;0.984;2023-09-19T00:04:46;99997.92;;;13.82;66.83
42411;BME280;28056;51.112;0.984;2023-09-19T00:07:13;100003.30;;;14.09;66.62
42411;BME280;28056;51.112;0.984;2023-09-19T00:09:42;100000.05;;;14.14;66.41
42411;BME280;28056;51.112;0.984;2023-09-19T00:12:09;99998.48;;;14.10;67.19
42411;BME280;28056;51.112;0.984;2023-09-19T00:14:36;99995.08;;;14.03;67.11
42411;BME280;28056;51.112;0.984;2023-09-19T00:17:04;99989.65;;;13.37;68.11
42411;BME280;28056;51.112;0.984;2023-09-19T00:19:31;99988.63;;;14.07;67.11
42411;BME280;28056;51.112;0.984;2023-09-19T00:21:59;99984.07;;;14.19;66.86
42411;BME280;28056;51.112;0.984;2023-09-19T00:24:27;99983.11;;;13.76;67.69
42411;BME280;28056;51.112;0.984;2023-09-19T00:26:54;99992.88;;;14.49;65.70
42411;BME280;28056;51.112;0.984;2023-09-19T00:29:22;99988.92;;;13.68;67.86
42411;BME280;28056;51.112;0.984;2023-09-19T00:31:50;99985.78;;;13.79;67.60
42411;BME280;28056;51.112;0.984;2023-09-19T00:34:17;99995.98;;;13.83;67.46
42411;BME280;28056;51.112;0.984;2023-09-19T00:36:45;100002.95;;;14.48;66.33
42411;BME280;28056;51.112;0.984;2023-09-19T00:39:12;100003.16;;;13.56;68.76
42411;BME280;28056;51.112;0.984;2023-09-19T00:41:39;100003.19;;;13.72;69.13
42411;BME280;28056;51.112;0.984;2023-09-19T00:44:07;100004.35;;;13.55;70.04
42411;BME280;28056;51.112;0.984;2023-09-19T00:46:34;100005.52;;;13.77;69.19
42411;BME280;28056;51.112;0.984;2023-09-19T00:49:02;100002.24;;;14.23;68.13
42411;BME280;28056;51.112;0.984;2023-09-19T00:51:30;100005.47;;;13.87;68.32
42411;BME280;28056;51.112;0.984;2023-09-19T00:53:58;100011.30;;;14.49;66.47
42411;BME280;28056;51.112;0.984;2023-09-19T00:56:26;100014.53;;;14.69;66.47
42411;BME280;28056;51.112;0.984;2023-09-19T00:58:54;100007.76;;;13.48;71.03
42411;BME280;28056;51.112;0.984;2023-09-19T01:01:21;100008.63;;;13.22;72.31
42411;BME280;28056;51.112;0.984;2023-09-19T01:03:49;100009.61;;;12.65;73.98
42411;BME280;28056;51.112;0.984;2023-09-19T01:06:17;100008.74;;;13.17;73.60
42411;BME280;28056;51.112;0.984;2023-09-19T01:08:44;100006.51;;;13.21;73.27
42411;BME280;28056;51.112;0.984;2023-09-19T01:11:16;100006.21;;;13.16;74.47
42411;BME280;28056;51.112;0.984;2023-09-19T01:13:56;100003.92;;;13.56;74.55
42411;BME280;28056;51.112;0.984;2023-09-19T01:16:32;100002.55;;;13.69;73.83
42411;BME280;28056;51.112;0.984;2023-09-19T01:19:13;99995.91;;;13.68;72.94
42411;BME280;28056;51.112;0.984;2023-09-19T01:21:53;99994.19;;;13.44;72.37
42411;BME280;28056;51.112;0.984;2023-09-19T01:24:54;100001.89;;;14.08;72.84
42411;BME280;28056;51.112;0.984;2023-09-19T01:27:40;99996.40;;;13.74;72.29
42411;BME280;28056;51.112;0.984;2023-09-19T01:30:20;100001.16;;;14.26;70.03
42411;BME280;28056;51.112;0.984;2023-09-19T01:32:50;100010.22;;;14.43;69.35
42411;BME280;28056;51.112;0.984;2023-09-19T01:35:18;100007.58;;;14.74;68.63
42411;BME280;28056;51.112;0.984;2023-09-19T01:37:46;100009.39;;;13.81;71.14
42411;BME280;28056;51.112;0.984;2023-09-19T01:40:16;100009.29;;;14.31;69.76
42411;BME280;28056;51.112;0.984;2023-09-19T01:42:52;100008.11;;;14.13;70.79
42411;BME280;28056;51.112;0.984;2023-09-19T01:45:30;100005.99;;;14.13;70.73
42411;BME280;28056;51.112;0.984;2023-09-19T01:48:12;100007.83;;;13.99;72.31
42411;BME280;28056;51.112;0.984;2023-09-19T01:50:52;100008.01;;;13.84;72.06
42411;BME280;28056;51.112;0.984;2023-09-19T01:53:25;100008.22;;;13.81;72.71
42411;BME280;28056;51.112;0.984;2023-09-19T01:55:53;100009.76;;;12.45;77.42
42411;BME280;28056;51.112;0.984;2023-09-19T01:58:29;100012.45;;;12.73;79.86
42411;BME280;28056;51.112;0.984;2023-09-19T02:01:00;100013.26;;;12.34;79.96
42411;BME280;28056;51.112;0.984;2023-09-19T02:03:29;100013.74;;;12.76;79.51
42411;BME280;28056;51.112;0.984;2023-09-19T02:05:58;100015.84;;;12.93;79.55
42411;BME280;28056;51.112;0.984;2023-09-19T02:08:26;100017.32;;;13.33;78.15
42411;BME280;28056;51.112;0.984;2023-09-19T02:10:54;100019.83;;;13.69;76.38
42411;BME280;28056;51.112;0.984;2023-09-19T02:13:22;100016.09;;;13.39;77.79
42411;BME280;28056;51.112;0.984;2023-09-19T02:15:50;100018.96;;;13.76;76.98
42411;BME280;28056;51.112;0.984;2023-09-19T02:18:18;100011.98;;;13.67;75.12
42411;BME280;28056;51.112;0.984;2023-09-19T02:20:45;100010.74;;;12.80;77.82
42411;BME280;28056;51.112;0.984;2023-09-19T02:23:14;100007.93;;;13.67;76.75
42411;BME280;28056;51.112;0.984;2023-09-19T02:25:41;100005.99;;;13.33;76.18
42411;BME280;28056;51.112;0.984;2023-09-19T02:28:08;100002.44;;;13.66;75.84
42411;BME280;28056;51.112;0.984;2023-09-19T02:30:35;100001.19;;;13.66;75.94
42411;BME280;28056;51.112;0.984;2023-09-19T02:33:04;100006.27;;;13.52;77.16
42411;BME280;28056;51.112;0.984;2023-09-19T02:35:31;99998.59;;;13.48;75.60
42411;BME280;28056;51.112;0.984;2023-09-19T02:37:58;100003.75;;;13.38;76.02
42411;BME280;28056;51.112;0.984;2023-09-19T02:40:26;100004.15;;;12.96;80.01
42411;BME280;28056;51.112;0.984;2023-09-19T02:42:54;100003.84;;;12.42;80.98
42411;BME280;28056;51.112;0.984;2023-09-19T02:45:22;100008.95;;;13.17;80.75
42411;BME280;28056;51.112;0.984;2023-09-19T02:47:49;100005.91;;;13.09;80.18
42411;BME280;28056;51.112;0.984;2023-09-19T02:50:17;100008.37;;;12.94;78.39
42411;BME280;28056;51.112;0.984;2023-09-19T02:52:46;100006.88;;;13.54;77.26
42411;BME280;28056;51.112;0.984;2023-09-19T02:55:14;100010.61;;;13.20;79.11
42411;BME280;28056;51.112;0.984;2023-09-19T02:57:42;100012.66;;;13.24;78.15
42411;BME280;28056;51.112;0.984;2023-09-19T03:00:13;100012.19;;;13.69;76.78
42411;BME280;28056;51.112;0.984;2023-09-19T03:02:41;100013.19;;;13.82;75.85
42411;BME280;28056;51.112;0.984;2023-09-19T03:05:09;100018.04;;;13.68;74.41
42411;BME280;28056;51.112;0.984;2023-09-19T03:07:36;100022.87;;;12.59;79.41
42411;BME280;28056;51.112;0.984;2023-09-19T03:10:04;100017.83;;;11.79;82.28
42411;BME280;28056;51.112;0.984;2023-09-19T03:12:32;100018.81;;;12.75;79.53
42411;BME280;28056;51.112;0.984;2023-09-19T03:14:59;100019.09;;;12.98;78.60
42411;BME280;28056;51.112;0.984;2023-09-19T03:17:27;100020.50;;;13.31;78.19
42411;BME280;28056;51.112;0.984;2023-09-19T03:19:54;100021.63;;;13.55;76.94
42411;BME280;28056;51.112;0.984;2023-09-19T03:22:21;100021.18;;;13.35;77.34
42411;BME280;28056;51.112;0.984;2023-09-19T03:24:47;100015.72;;;13.40;75.82
42411;BME280;28056;51.112;0.984;2023-09-19T03:27:15;100013.86;;;13.74;74.57
42411;BME280;28056;51.112;0.984;2023-09-19T03:29:43;100013.52;;;14.34;72.95
42411;BME280;28056;51.112;0.984;2023-09-19T03:32:10;100018.13;;;13.33;76.61
42411;BME280;28056;51.112;0.984;2023-09-19T03:34:38;100022.17;;;13.65;74.83
42411;BME280;28056;51.112;0.984;2023-09-19T03:37:06;100028.77;;;13.20;75.54
42411;BME280;28056;51.112;0.984;2023-09-19T03:39:33;100022.76;;;13.73;73.91
42411;BME280;28056;51.112;0.984;2023-09-19T03:42:02;100020.56;;;13.22;75.77
42411;BME280;28056;51.112;0.984;2023-09-19T03:44:29;100018.36;;;13.70;74.76
42411;BME280;28056;51.112;0.984;2023-09-19T03:46:56;100021.78;;;14.18;72.86
42411;BME280;28056;51.112;0.984;2023-09-19T03:49:24;100019.23;;;14.08;72.33
42411;BME280;28056;51.112;0.984;2023-09-19T03:52:02;100017.76;;;14.44;71.54
42411;BME280;28056;51.112;0.984;2023-09-19T03:54:30;100015.50;;;14.07;71.00
42411;BME280;28056;51.112;0.984;2023-09-19T03:56:59;100012.74;;;14.88;69.51
42411;BME280;28056;51.112;0.984;2023-09-19T03:59:27;100008.46;;;13.89;72.35
42411;BME280;28056;51.112;0.984;2023-09-19T04:01:54;100009.58;;;14.43;70.95
42411;BME280;28056;51.112;0.984;2023-09-19T04:04:22;100005.29;;;15.10;68.49
42411;BME280;28056;51.112;0.984;2023-09-19T04:06:49;99998.03;;;14.53;69.51
42411;BME280;28056;51.112;0.984;2023-09-19T04:09:17;99994.97;;;14.78;69.13
42411;BME280;28056;51.112;0.984;2023-09-19T04:11:44;99994.03;;;14.84;67.47
42411;BME280;28056;51.112;0.984;2023-09-19T04:14:11;99991.76;;;14.89;68.07
42411;BME280;28056;51.112;0.984;2023-09-19T04:16:38;99988.03;;;14.81;68.83
42411;BME280;28056;51.112;0.984;2023-09-19T04:19:06;99990.67;;;15.28;66.59
42411;BME280;28056;51.112;0.984;2023-09-19T04:21:33;99987.49;;;15.04;66.70
42411;BME280;28056;51.112;0.984;2023-09-19T04:24:01;99981.01;;;15.19;66.04
42411;BME280;28056;51.112;0.984;2023-09-19T04:26:29;99975.96;;;14.88;66.90
42411;BME280;28056;51.112;0.984;2023-09-19T04:28:56;99982.01;;;15.37;66.53
42411;BME280;28056;51.112;0.984;2023-09-19T04:31:24;99982.25;;;14.75;68.61
42411;BME280;28056;51.112;0.984;2023-09-19T04:33:50;99978.28;;;14.82;67.86
42411;BME280;28056;51.112;0.984;2023-09-19T04:36:17;99978.02;;;14.82;68.65
42411;BME280;28056;51.112;0.984;2023-09-19T04:38:45;99973.81;;;14.08;71.49
42411;BME280;28056;51.112;0.984;2023-09-19T04:41:13;99971.20;;;14.08;72.61
42411;BME280;28056;51.112;0.984;2023-09-19T04:43:40;99972.71;;;15.18;68.27
42411;BME280;28056;51.112;0.984;2023-09-19T04:46:08;99974.76;;;14.62;69.51
42411;BME280;28056;51.112;0.984;2023-09-19T04:48:36;99977.34;;;14.77;70.28
42411;BME280;28056;51.112;0.984;2023-09-19T04:51:04;99972.50;;;14.78;70.25
42411;BME280;28056;51.112;0.984;2023-09-19T04:53:31;99968.25;;;15.04;69.95
42411;BME280;28056;51.112;0.984;2023-09-19T04:55:58;99965.86;;;14.65;70.68
42411;BME280;28056;51.112;0.984;2023-09-19T04:58:25;99976.09;;;14.80;71.03
42411;BME280;28056;51.112;0.984;2023-09-19T05:00:53;99980.11;;;14.18;74.07
42411;BME280;28056;51.112;0.984;2023-09-19T05:03:21;99976.84;;;14.38;74.15
42411;BME280;28056;51.112;0.984;2023-09-19T05:05:48;99972.60;;;14.44;75.54
42411;BME280;28056;51.112;0.984;2023-09-19T05:08:16;99970.56;;;14.01;78.32
42411;BME280;28056;51.112;0.984;2023-09-19T05:10:44;99972.89;;;14.78;75.95
42411;BME280;28056;51.112;0.984;2023-09-19T05:13:11;99971.67;;;14.45;77.62
42411;BME280;28056;51.112;0.984;2023-09-19T05:15:38;99975.28;;;14.17;78.68
42411;BME280;28056;51.112;0.984;2023-09-19T05:18:06;99976.71;;;14.67;76.66
42411;BME280;28056;51.112;0.984;2023-09-19T05:20:34;99970.53;;;14.13;78.73
42411;BME280;28056;51.112;0.984;2023-09-19T05:23:02;99972.33;;;14.58;78.84
42411;BME280;28056;51.112;0.984;2023-09-19T05:25:31;99971.83;;;14.49;77.76
42411;BME280;28056;51.112;0.984;2023-09-19T05:28:00;99968.97;;;14.83;75.74
42411;BME280;28056;51.112;0.984;2023-09-19T05:30:27;99964.57;;;14.98;74.83
42411;BME280;28056;51.112;0.984;2023-09-19T05:32:55;99960.51;;;15.54;72.71
42411;BME280;28056;51.112;0.984;2023-09-19T05:35:22;99958.12;;;14.31;77.06
42411;BME280;28056;51.112;0.984;2023-09-19T05:37:51;99956.91;;;15.17;74.68
42411;BME280;28056;51.112;0.984;2023-09-19T05:40:19;99953.69;;;15.13;73.63
42411;BME280;28056;51.112;0.984;2023-09-19T05:42:47;99955.99;;;14.93;75.30
42411;BME280;28056;51.112;0.984;2023-09-19T05:45:15;99953.61;;;15.19;76.15
42411;BME280;28056;51.112;0.984;2023-09-19T05:47:43;99951.24;;;14.70;77.91
42411;BME280;28056;51.112;0.984;2023-09-19T05:50:10;99951.13;;;14.53;79.87
42411;BME280;28056;51.112;0.984;2023-09-19T05:52:38;99946.65;;;15.03;79.90
42411;BME280;28056;51.112;0.984;2023-09-19T05:55:06;99944.71;;;14.53;82.77
42411;BME280;28056;51.112;0.984;2023-09-19T05:57:33;99946.40;;;14.16;86.06
42411;BME280;28056;51.112;0.984;2023-09-19T06:00:01;99946.88;;;14.36;85.00
42411;BME280;28056;51.112;0.984;2023-09-19T06:02:28;99947.05;;;14.75;83.67
42411;BME280;28056;51.112;0.984;2023-09-19T06:04:56;99947.34;;;14.94;83.68
42411;BME280;28056;51.112;0.984;2023-09-19T06:07:22;99946.68;;;15.17;82.79
42411;BME280;28056;51.112;0.984;2023-09-19T06:09:50;99948.32;;;14.89;83.63
42411;BME280;28056;51.112;0.984;2023-09-19T06:12:18;99951.69;;;14.94;84.26
42411;BME280;28056;51.112;0.984;2023-09-19T06:14:45;99950.44;;;13.88;87.98
42411;BME280;28056;51.112;0.984;2023-09-19T06:17:13;99950.00;;;14.05;91.29
42411;BME280;28056;51.112;0.984;2023-09-19T06:19:41;99952.86;;;14.86;88.94
42411;BME280;28056;51.112;0.984;2023-09-19T06:22:24;99949.17;;;15.21;88.70
42411;BME280;28056;51.112;0.984;2023-09-19T06:24:51;99946.95;;;14.38;91.52
42411;BME280;28056;51.112;0.984;2023-09-19T06:27:18;99949.55;;;14.54;91.54
42411;BME280;28056;51.112;0.984;2023-09-19T06:29:46;99956.55;;;14.23;93.29
42411;BME280;28056;51.112;0.984;2023-09-19T06:32:14;99943.65;;;14.64;93.11
42411;BME280;28056;51.112;0.984;2023-09-19T06:34:42;99946.78;;;14.95;91.64
42411;BME280;28056;51.112;0.984;2023-09-19T06:37:09;99941.30;;;15.26;91.26
42411;BME280;28056;51.112;0.984;2023-09-19T06:39:37;99939.44;;;15.70;88.15
42411;BME280;28056;51.112;0.984;2023-09-19T06:42:05;99944.54;;;15.47;90.19
42411;BME280;28056;51.112;0.984;2023-09-19T06:44:32;99935.79;;;16.13;86.46
42411;BME280;28056;51.112;0.984;2023-09-19T06:47:00;99944.77;;;14.47;92.95
42411;BME280;28056;51.112;0.984;2023-09-19T06:49:28;99931.12;;;15.72;91.43
42411;BME280;28056;51.112;0.984;2023-09-19T06:51:55;99953.46;;;14.56;93.60
42411;BME280;28056;51.112;0.984;2023-09-19T06:54:23;99935.64;;;15.05;91.89
42411;BME280;28056;51.112;0.984;2023-09-19T06:56:50;99933.26;;;15.14;91.86
42411;BME280;28056;51.112;0.984;2023-09-19T06:59:17;99932.45;;;14.73;93.14
42411;BME280;28056;51.112;0.984;2023-09-19T07:01:44;99931.90;;;15.06;92.94
42411;BME280;28056;51.112;0.984;2023-09-19T07:04:12;99926.97;;;15.28;93.40
42411;BME280;28056;51.112;0.984;2023-09-19T07:06:39;99935.19;;;15.25;97.29
42411;BME280;28056;51.112;0.984;2023-09-19T07:09:07;99927.82;;;15.24;99.72
42411;BME280;28056;51.112;0.984;2023-09-19T07:11:34;99922.85;;;14.92;100.00
42411;BME280;28056;51.112;0.984;2023-09-19T07:14:02;99916.54;;;14.73;100.00
42411;BME280;28056;51.112;0.984;2023-09-19T07:16:30;99907.63;;;15.12;100.00
42411;BME280;28056;51.112;0.984;2023-09-19T07:18:57;99900.59;;;15.38;100.00
42411;BME280;28056;51.112;0.984;2023-09-19T07:21:25;99903.57;;;14.37;100.00
42411;BME280;28056;51.112;0.984;2023-09-19T07:23:52;99897.38;;;15.08;100.00
42411;BME280;28056;51.112;0.984;2023-09-19T07:26:20;99898.17;;;15.09;100.00
42411;BME280;28056;51.112;0.984;2023-09-19T07:28:48;99898.13;;;15.27;100.00
42411;BME280;28056;51.112;0.984;2023-09-19T07:31:15;99904.24;;;15.21;100.00
42411;BME280;28056;51.112;0.984;2023-09-19T07:33:42;99905.36;;;14.91;100.00
42411;BME280;28056;51.112;0.984;2023-09-19T07:36:11;99891.70;;;15.43;100.00
42411;BME280;28056;51.112;0.984;2023-09-19T07:38:38;99900.60;;;14.36;100.00
42411;BME280;28056;51.112;0.984;2023-09-19T07:41:06;99903.43;;;14.98;100.00
42411;BME280;28056;51.112;0.984;2023-09-19T07:43:34;99904.22;;;15.06;100.00
42411;BME280;28056;51.112;0.984;2023-09-19T07:46:04;99895.44;;;15.05;100.00
42411;BME280;28056;51.112;0.984;2023-09-19T07:48:31;99893.20;;;15.37;100.00
42411;BME280;28056;51.112;0.984;2023-09-19T07:51:02;99896.46;;;14.90;100.00
42411;BME280;28056;51.112;0.984;2023-09-19T07:53:30;99891.31;;;15.51;100.00
42411;BME280;28056;51.112;0.984;2023-09-19T07:56:02;99883.09;;;15.29;100.00
42411;BME280;28056;51.112;0.984;2023-09-19T07:58:30;99881.47;;;15.67;100.00
42411;BME280;28056;51.112;0.984;2023-09-19T08:01:02;99877.81;;;15.62;100.00
42411;BME280;28056;51.112;0.984;2023-09-19T08:03:30;99873.20;;;15.53;100.00
42411;BME280;28056;51.112;0.984;2023-09-19T08:05:57;99877.13;;;15.09;100.00
42411;BME280;28056;51.112;0.984;2023-09-19T08:08:25;99883.63;;;15.12;100.00
42411;BME280;28056;51.112;0.984;2023-09-19T08:10:54;99875.09;;;15.57;100.00
42411;BME280;28056;51.112;0.984;2023-09-19T08:13:22;99874.74;;;15.59;100.00
42411;BME280;28056;51.112;0.984;2023-09-19T08:15:49;99873.94;;;16.94;100.00
42411;BME280;28056;51.112;0.984;2023-09-19T08:18:16;99880.51;;;16.03;100.00
42411;BME280;28056;51.112;0.984;2023-09-19T08:20:49;99876.87;;;14.95;100.00
42411;BME280;28056;51.112;0.984;2023-09-19T08:23:17;99876.14;;;15.11;100.00
42411;BME280;28056;51.112;0.984;2023-09-19T08:25:44;99864.45;;;14.84;100.00
42411;BME280;28056;51.112;0.984;2023-09-19T08:28:12;99858.22;;;15.10;100.00
42411;BME280;28056;51.112;0.984;2023-09-19T08:30:39;99864.70;;;15.19;100.00
42411;BME280;28056;51.112;0.984;2023-09-19T08:33:07;99855.66;;;15.56;100.00
42411;BME280;28056;51.112;0.984;2023-09-19T08:35:34;99860.84;;;15.86;100.00
42411;BME280;28056;51.112;0.984;2023-09-19T08:38:02;99849.94;;;15.51;100.00
42411;BME280;28056;51.112;0.984;2023-09-19T08:40:30;99856.16;;;16.01;100.00
42411;BME280;28056;51.112;0.984;2023-09-19T08:42:57;99849.58;;;16.26;100.00
42411;BME280;28056;51.112;0.984;2023-09-19T08:45:25;99856.97;;;15.92;100.00
42411;BME280;28056;51.112;0.984;2023-09-19T08:48:00;99850.76;;;16.02;100.00
42411;BME280;28056;51.112;0.984;2023-09-19T08:50:30;99856.61;;;16.29;100.00
42411;BME280;28056;51.112;0.984;2023-09-19T08:53:01;99846.86;;;16.48;98.41
42411;BME280;28056;51.112;0.984;2023-09-19T08:55:29;99849.19;;;16.49;97.98
42411;BME280;28056;51.112;0.984;2023-09-19T08:58:01;99851.22;;;16.08;99.69
42411;BME280;28056;51.112;0.984;2023-09-19T09:00:31;99853.12;;;16.14;95.92
42411;BME280;28056;51.112;0.984;2023-09-19T09:03:00;99850.25;;;16.32;95.98
42411;BME280;28056;51.112;0.984;2023-09-19T09:05:30;99873.22;;;16.33;95.19
42411;BME280;28056;51.112;0.984;2023-09-19T09:07:58;99858.80;;;15.74;95.04
42411;BME280;28056;51.112;0.984;2023-09-19T09:10:26;99867.12;;;15.46;100.00
42411;BME280;28056;51.112;0.984;2023-09-19T09:12:54;99859.54;;;16.24;94.91
42411;BME280;28056;51.112;0.984;2023-09-19T09:15:22;99869.93;;;16.34;95.65
42411;BME280;28056;51.112;0.984;2023-09-19T09:17:51;99856.61;;;15.89;99.19
42411;BME280;28056;51.112;0.984;2023-09-19T09:20:19;99855.04;;;16.11;98.76
42411;BME280;28056;51.112;0.984;2023-09-19T09:22:54;99856.28;;;16.38;98.22
42411;BME280;28056;51.112;0.984;2023-09-19T09:25:22;99858.90;;;16.44;96.04
42411;BME280;28056;51.112;0.984;2023-09-19T09:27:59;99868.41;;;16.28;98.69
42411;BME280;28056;51.112;0.984;2023-09-19T09:30:35;99864.83;;;15.98;97.88
42411;BME280;28056;51.112;0.984;2023-09-19T09:33:11;99871.83;;;17.13;95.34
42411;BME280;28056;51.112;0.984;2023-09-19T09:35:49;99867.47;;;15.77;97.99
42411;BME280;28056;51.112;0.984;2023-09-19T09:38:17;99861.13;;;16.13;98.66
42411;BME280;28056;51.112;0.984;2023-09-19T09:40:49;99856.28;;;15.74;98.82
42411;BME280;28056;51.112;0.984;2023-09-19T09:43:33;99862.51;;;15.99;99.15
42411;BME280;28056;51.112;0.984;2023-09-19T09:46:12;99856.50;;;16.55;98.06
42411;BME280;28056;51.112;0.984;2023-09-19T09:48:39;99869.14;;;16.25;97.75
42411;BME280;28056;51.112;0.984;2023-09-19T09:51:06;99856.78;;;16.56;96.56
42411;BME280;28056;51.112;0.984;2023-09-19T09:53:34;99866.03;;;15.75;100.00
42411;BME280;28056;51.112;0.984;2023-09-19T09:56:03;99856.25;;;15.93;96.16
42411;BME280;28056;51.112;0.984;2023-09-19T09:58:31;99875.50;;;16.52;95.04
42411;BME280;28056;51.112;0.984;2023-09-19T10:00:59;99878.19;;;16.59;92.22
42411;BME280;28056;51.112;0.984;2023-09-19T10:03:35;99872.52;;;16.30;92.86
42411;BME280;28056;51.112;0.984;2023-09-19T10:06:02;99864.83;;;16.47;93.30
42411;BME280;28056;51.112;0.984;2023-09-19T10:08:30;99871.50;;;16.80;92.58
42411;BME280;28056;51.112;0.984;2023-09-19T10:10:57;99861.09;;;15.90;93.39
42411;BME280;28056;51.112;0.984;2023-09-19T10:13:26;99855.95;;;16.17;95.93
42411;BME280;28056;51.112;0.984;2023-09-19T10:15:56;99866.59;;;15.95;96.46
42411;BME280;28056;51.112;0.984;2023-09-19T10:18:27;99858.01;;;15.80;94.90
42411;BME280;28056;51.112;0.984;2023-09-19T10:20:56;99859.96;;;15.88;96.25
42411;BME280;28056;51.112;0.984;2023-09-19T10:23:23;99848.40;;;16.45;93.45
42411;BME280;28056;51.112;0.984;2023-09-19T10:25:52;99851.14;;;16.76;90.34
42411;BME280;28056;51.112;0.984;2023-09-19T10:28:20;99841.41;;;16.33;92.19
42411;BME280;28056;51.112;0.984;2023-09-19T10:30:50;99843.89;;;16.08;94.11
42411;BME280;28056;51.112;0.984;2023-09-19T10:33:20;99837.77;;;16.69;92.46
42411;BME280;28056;51.112;0.984;2023-09-19T10:35:48;99846.35;;;16.47;91.36
42411;BME280;28056;51.112;0.984;2023-09-19T10:38:18;99852.37;;;16.73;86.42
42411;BME280;28056;51.112;0.984;2023-09-19T10:40:50;99851.28;;;16.02;89.26
42411;BME280;28056;51.112;0.984;2023-09-19T10:43:19;99859.42;;;16.80;88.98
42411;BME280;28056;51.112;0.984;2023-09-19T10:45:48;99844.10;;;16.53;87.20
42411;BME280;28056;51.112;0.984;2023-09-19T10:48:16;99849.18;;;16.65;88.71
42411;BME280;28056;51.112;0.984;2023-09-19T10:50:46;99845.03;;;16.70;88.93
42411;BME280;28056;51.112;0.984;2023-09-19T10:53:16;99847.18;;;16.37;86.15
42411;BME280;28056;51.112;0.984;2023-09-19T10:55:51;99866.99;;;16.26;87.13
42411;BME280;28056;51.112;0.984;2023-09-19T10:58:28;99839.26;;;16.45;87.58
42411;BME280;28056;51.112;0.984;2023-09-19T11:00:57;99848.39;;;16.43;88.01
42411;BME280;28056;51.112;0.984;2023-09-19T11:03:24;99856.30;;;17.33;84.76
42411;BME280;28056;51.112;0.984;2023-09-19T11:06:11;99842.24;;;16.72;87.68
42411;BME280;28056;51.112;0.984;2023-09-19T11:09:10;99845.22;;;16.47;88.27
42411;BME280;28056;51.112;0.984;2023-09-19T11:11:43;99846.10;;;16.09;90.78
42411;BME280;28056;51.112;0.984;2023-09-19T11:14:43;99849.91;;;16.36;87.12
42411;BME280;28056;51.112;0.984;2023-09-19T11:17:32;99846.78;;;16.42;84.98
42411;BME280;28056;51.112;0.984;2023-09-19T11:20:32;99854.84;;;15.94;86.36
42411;BME280;28056;51.112;0.984;2023-09-19T11:23:31;99849.49;;;15.66;90.11
42411;BME280;28056;51.112;0.984;2023-09-19T11:25:58;99860.01;;;15.95;89.66
42411;BME280;28056;51.112;0.984;2023-09-19T11:28:31;99843.12;;;16.28;89.55
42411;BME280;28056;51.112;0.984;2023-09-19T11:30:59;99833.64;;;16.12;93.10
42411;BME280;28056;51.112;0.984;2023-09-19T11:34:49;99853.74;;;15.91;91.37
42411;BME280;28056;51.112;0.984;2023-09-19T11:39:00;99824.94;;;16.37;94.55
42411;BME280;28056;51.112;0.984;2023-09-19T11:41:43;99843.41;;;16.64;91.85
42411;BME280;28056;51.112;0.984;2023-09-19T11:44:43;99833.78;;;16.86;91.27
42411;BME280;28056;51.112;0.984;2023-09-19T11:47:11;99836.56;;;16.67;92.26
42411;BME280;28056;51.112;0.984;2023-09-19T11:49:40;99823.45;;;16.08;93.56
42411;BME280;28056;51.112;0.984;2023-09-19T11:52:08;99839.51;;;16.42;96.34
42411;BME280;28056;51.112;0.984;2023-09-19T11:54:36;99844.30;;;16.45;95.23
42411;BME280;28056;51.112;0.984;2023-09-19T11:57:04;99836.10;;;16.30;94.28
42411;BME280;28056;51.112;0.984;2023-09-19T11:59:32;99846.55;;;16.35;94.54
42411;BME280;28056;51.112;0.984;2023-09-19T12:02:03;99842.02;;;16.22;95.07
42411;BME280;28056;51.112;0.984;2023-09-19T12:04:34;99845.10;;;16.06;97.12
42411;BME280;28056;51.112;0.984;2023-09-19T12:07:02;99838.23;;;15.97;96.53
42411;BME280;28056;51.112;0.984;2023-09-19T12:09:30;99850.81;;;16.11;93.98
42411;BME280;28056;51.112;0.984;2023-09-19T12:11:58;99850.54;;;15.68;95.36
42411;BME280;28056;51.112;0.984;2023-09-19T12:14:26;99857.93;;;16.05;94.77
42411;BME280;28056;51.112;0.984;2023-09-19T12:16:55;99848.75;;;16.05;98.25
42411;BME280;28056;51.112;0.984;2023-09-19T12:19:23;99852.28;;;15.78;97.68
42411;BME280;28056;51.112;0.984;2023-09-19T12:21:58;99860.74;;;15.77;98.39
42411;BME280;28056;51.112;0.984;2023-09-19T12:24:27;99851.93;;;16.36;95.40
42411;BME280;28056;51.112;0.984;2023-09-19T12:26:54;99865.58;;;15.92;96.35
42411;BME280;28056;51.112;0.984;2023-09-19T12:29:22;99853.70;;;16.18;95.46
42411;BME280;28056;51.112;0.984;2023-09-19T12:31:51;99864.00;;;15.45;100.00
42411;BME280;28056;51.112;0.984;2023-09-19T12:34:21;99865.08;;;15.61;100.00
42411;BME280;28056;51.112;0.984;2023-09-19T12:36:49;99855.47;;;15.68;100.00
42411;BME280;28056;51.112;0.984;2023-09-19T12:39:24;99850.23;;;16.29;99.98
42411;BME280;28056;51.112;0.984;2023-09-19T12:41:52;99849.81;;;16.24;97.58
42411;BME280;28056;51.112;0.984;2023-09-19T12:44:20;99849.33;;;15.51;98.81
42411;BME280;28056;51.112;0.984;2023-09-19T12:46:47;99852.41;;;15.73;96.41
42411;BME280;28056;51.112;0.984;2023-09-19T12:49:16;99856.47;;;16.10;95.54
42411;BME280;28056;51.112;0.984;2023-09-19T12:51:43;99859.52;;;15.45;98.44
42411;BME280;28056;51.112;0.984;2023-09-19T12:54:11;99858.45;;;15.68;98.90
42411;BME280;28056;51.112;0.984;2023-09-19T12:56:40;99849.39;;;15.96;100.00
42411;BME280;28056;51.112;0.984;2023-09-19T12:59:08;99845.62;;;16.12;100.00
42411;BME280;28056;51.112;0.984;2023-09-19T13:01:35;99845.66;;;15.74;100.00
42411;BME280;28056;51.112;0.984;2023-09-19T13:04:19;99843.80;;;15.52;100.00
42411;BME280;28056;51.112;0.984;2023-09-19T13:06:48;99832.83;;;15.79;100.00
42411;BME280;28056;51.112;0.984;2023-09-19T13:09:17;99835.95;;;16.20;100.00
42411;BME280;28056;51.112;0.984;2023-09-19T13:11:45;99839.89;;;15.64;100.00